createdAt,value
2022-08-12T00:00:49.902Z,63.40
2022-08-12T00:02:05.153Z,63.31
2022-08-12T00:02:49.891Z,63.70
2022-08-12T00:03:49.853Z,63.47
2022-08-12T00:04:49.835Z,63.79
2022-08-12T00:06:01.970Z,64.92
2022-08-12T00:06:49.805Z,65.05
2022-08-12T00:07:49.800Z,65.05
2022-08-12T00:08:49.765Z,65.30
2022-08-12T00:09:49.758Z,65.43
2022-08-12T00:10:49.735Z,65.05
2022-08-12T00:11:49.718Z,65.34
2022-08-12T00:12:49.698Z,64.47
2022-08-12T00:13:49.685Z,64.47
2022-08-12T00:14:49.664Z,63.67
2022-08-12T00:15:49.648Z,64.43
2022-08-12T00:16:49.628Z,64.76
2022-08-12T00:17:49.614Z,64.43
2022-08-12T00:18:49.598Z,65.72
2022-08-12T00:19:49.581Z,65.34
2022-08-12T00:20:49.560Z,65.34
2022-08-12T00:21:49.544Z,65.24
2022-08-12T00:22:53.072Z,65.01
2022-08-12T00:23:49.517Z,65.98
2022-08-12T00:24:49.507Z,66.08
2022-08-12T00:25:51.277Z,65.98
2022-08-12T00:26:49.459Z,65.98
2022-08-12T00:27:49.442Z,66.08
2022-08-12T00:28:49.423Z,65.78
2022-08-12T00:29:49.407Z,65.56
2022-08-12T00:30:49.387Z,65.11
2022-08-12T00:31:49.373Z,66.08
2022-08-12T00:32:54.811Z,65.75
2022-08-12T00:33:52.462Z,67.00
2022-08-12T00:34:49.672Z,66.62
2022-08-12T00:35:49.302Z,66.46
2022-08-12T00:36:50.389Z,66.36
2022-08-12T00:37:49.267Z,66.52
2022-08-12T00:38:49.251Z,66.46
2022-08-12T00:39:49.285Z,65.66
2022-08-12T00:40:49.222Z,65.27
2022-08-12T00:41:49.200Z,65.75
2022-08-12T00:42:49.178Z,66.62
2022-08-12T00:43:49.165Z,68.16
2022-08-12T00:44:49.152Z,68.55
2022-08-12T00:45:49.133Z,67.49
2022-08-12T00:46:49.110Z,67.49
2022-08-12T00:47:49.094Z,67.40
2022-08-12T00:48:49.077Z,68.16
2022-08-12T00:49:50.324Z,68.16
2022-08-12T00:50:49.041Z,67.20
2022-08-12T00:51:49.027Z,67.10
2022-08-12T00:52:49.007Z,67.78
2022-08-12T00:53:48.994Z,68.80
2022-08-12T00:54:48.971Z,69.25
2022-08-12T00:55:48.955Z,70.12
2022-08-12T00:56:48.936Z,71.14
2022-08-12T00:57:48.919Z,72.39
2022-08-12T00:58:48.902Z,73.22
2022-08-12T00:59:48.884Z,74.29
2022-08-12T01:00:48.867Z,73.80
2022-08-12T01:02:00.974Z,74.96
2022-08-12T01:02:48.830Z,75.54
2022-08-12T01:03:48.817Z,75.05
2022-08-12T01:04:48.795Z,75.63
2022-08-12T01:05:48.777Z,75.34
2022-08-12T01:06:50.890Z,75.15
2022-08-12T01:07:48.753Z,75.54
2022-08-12T01:08:48.723Z,74.86
2022-08-12T01:09:48.707Z,74.61
2022-08-12T01:10:48.689Z,74.61
2022-08-12T01:11:48.673Z,74.32
2022-08-12T01:12:48.655Z,73.74
2022-08-12T01:13:48.641Z,74.13
2022-08-12T01:14:48.619Z,73.90
2022-08-12T01:15:48.606Z,74.73
2022-08-12T01:16:48.581Z,75.59
2022-08-12T01:17:48.567Z,75.69
2022-08-12T01:18:48.548Z,76.07
2022-08-12T01:19:48.529Z,76.07
2022-08-12T01:20:48.511Z,76.36
2022-08-12T01:21:48.502Z,76.84
2022-08-12T01:22:48.477Z,76.65
2022-08-12T01:23:48.458Z,76.84
2022-08-12T01:24:48.443Z,76.36
2022-08-12T01:25:56.233Z,76.59
2022-08-12T01:26:48.401Z,75.82
2022-08-12T01:27:48.390Z,76.21
2022-08-12T01:28:48.417Z,75.82
2022-08-12T01:29:48.344Z,75.44
2022-08-12T01:30:48.330Z,75.73
2022-08-12T01:31:48.315Z,75.69
2022-08-12T01:32:48.295Z,76.65
2022-08-12T01:33:48.278Z,76.71
2022-08-12T01:34:48.262Z,77.00
2022-08-12T01:35:57.793Z,77.48
2022-08-12T01:36:48.224Z,77.86
2022-08-12T01:37:48.209Z,78.34
2022-08-12T01:38:48.188Z,78.44
2022-08-12T01:40:31.647Z,78.53
2022-08-12T01:40:48.199Z,78.53
2022-08-12T01:41:51.487Z,78.73
2022-08-12T01:42:48.117Z,78.25
2022-08-12T01:43:48.097Z,78.83
2022-08-12T01:44:48.080Z,77.19
2022-08-12T01:45:48.060Z,77.67
2022-08-12T01:46:48.043Z,78.15
2022-08-12T01:47:48.027Z,78.53
2022-08-12T01:48:48.006Z,78.83
2022-08-12T01:49:47.987Z,79.17
2022-08-12T01:50:47.971Z,80.13
2022-08-12T01:52:21.590Z,80.04
2022-08-12T01:52:47.934Z,80.51
2022-08-12T01:53:50.247Z,81.09
2022-08-12T01:54:47.900Z,81.09
2022-08-12T01:55:47.879Z,81.57
2022-08-12T01:56:47.862Z,80.99
2022-08-12T01:57:59.358Z,80.99
2022-08-12T01:58:47.823Z,80.80
2022-08-12T01:59:47.804Z,80.80
2022-08-12T02:00:54.973Z,80.07
2022-08-12T02:01:47.978Z,79.84
2022-08-12T02:02:47.750Z,80.61
2022-08-12T02:03:47.732Z,80.71
2022-08-12T02:04:47.712Z,80.61
2022-08-12T02:05:47.698Z,80.80
2022-08-12T02:06:47.677Z,80.51
2022-08-12T02:07:47.659Z,81.09
2022-08-12T02:08:47.641Z,80.71
2022-08-12T02:09:47.621Z,80.71
2022-08-12T02:10:51.214Z,80.61
2022-08-12T02:11:47.588Z,79.94
2022-08-12T02:12:47.858Z,79.36
2022-08-12T02:13:49.072Z,79.84
2022-08-12T02:14:47.530Z,80.13
2022-08-12T02:15:47.513Z,79.84
2022-08-12T02:16:47.492Z,80.17
2022-08-12T02:17:56.556Z,79.98
2022-08-12T02:18:47.457Z,79.88
2022-08-12T02:19:47.436Z,80.90
2022-08-12T02:20:51.641Z,80.51
2022-08-12T02:21:47.399Z,80.32
2022-08-12T02:22:47.405Z,80.61
2022-08-12T02:23:47.365Z,80.99
2022-08-12T02:24:47.346Z,80.80
2022-08-12T02:25:47.326Z,80.51
2022-08-12T02:26:47.308Z,81.19
2022-08-12T02:27:47.291Z,81.38
2022-08-12T02:28:47.283Z,81.28
2022-08-12T02:29:47.252Z,81.38
2022-08-12T02:30:47.241Z,81.67
2022-08-12T02:31:47.221Z,80.99
2022-08-12T02:32:47.201Z,80.84
2022-08-12T02:33:47.185Z,80.65
2022-08-12T02:34:47.159Z,80.42
2022-08-12T02:35:47.144Z,80.80
2022-08-12T02:36:47.123Z,80.99
2022-08-12T02:37:47.105Z,81.48
2022-08-12T02:38:47.087Z,80.61
2022-08-12T02:39:47.150Z,80.99
2022-08-12T02:40:47.051Z,80.90
2022-08-12T02:41:47.031Z,80.80
2022-08-12T02:42:47.013Z,80.90
2022-08-12T02:43:46.998Z,81.13
2022-08-12T02:44:46.976Z,80.71
2022-08-12T02:45:46.958Z,80.42
2022-08-12T02:46:46.943Z,80.80
2022-08-12T02:47:59.430Z,80.71
2022-08-12T02:48:46.904Z,80.80
2022-08-12T02:49:46.883Z,80.61
2022-08-12T02:50:46.866Z,80.61
2022-08-12T02:51:46.848Z,80.46
2022-08-12T02:52:46.830Z,80.13
2022-08-12T02:54:05.123Z,80.13
2022-08-12T02:54:46.790Z,79.75
2022-08-12T02:55:46.776Z,79.94
2022-08-12T02:56:48.075Z,80.22
2022-08-12T02:57:46.736Z,80.71
2022-08-12T02:58:46.720Z,80.61
2022-08-12T02:59:46.701Z,81.09
2022-08-12T03:00:46.750Z,80.99
2022-08-12T03:01:48.207Z,81.38
2022-08-12T03:02:46.642Z,81.48
2022-08-12T03:03:46.624Z,81.38
2022-08-12T03:04:46.606Z,81.28
2022-08-12T03:05:46.587Z,81.19
2022-08-12T03:06:46.569Z,81.42
2022-08-12T03:07:59.312Z,79.75
2022-08-12T03:08:49.192Z,79.69
2022-08-12T03:09:56.128Z,79.88
2022-08-12T03:10:46.492Z,79.79
2022-08-12T03:11:48.770Z,79.40
2022-08-12T03:12:49.499Z,79.75
2022-08-12T03:13:46.440Z,79.84
2022-08-12T03:14:46.419Z,79.75
2022-08-12T03:15:46.400Z,80.61
2022-08-12T03:16:46.380Z,80.71
2022-08-12T03:17:46.365Z,81.38
2022-08-12T03:18:46.524Z,81.67
2022-08-12T03:20:09.304Z,81.86
2022-08-12T03:20:46.306Z,81.38
2022-08-12T03:21:57.972Z,80.90
2022-08-12T03:22:46.277Z,80.90
2022-08-12T03:23:46.250Z,79.94
2022-08-12T03:24:46.232Z,79.84
2022-08-12T03:25:46.214Z,79.99
2022-08-12T03:26:46.195Z,80.96
2022-08-12T03:27:46.176Z,81.72
2022-08-12T03:28:46.158Z,81.92
2022-08-12T03:29:49.928Z,82.87
2022-08-12T03:30:46.120Z,83.36
2022-08-12T03:31:46.104Z,82.97
2022-08-12T03:32:46.301Z,82.59
2022-08-12T03:34:02.355Z,82.30
2022-08-12T03:34:46.045Z,82.30
2022-08-12T03:35:46.029Z,81.63
2022-08-12T03:36:46.008Z,81.63
2022-08-12T03:37:45.987Z,81.67
2022-08-12T03:38:45.972Z,80.71
2022-08-12T03:39:46.028Z,80.90
2022-08-12T03:40:45.936Z,80.90
2022-08-12T03:41:45.912Z,80.61
2022-08-12T03:42:45.896Z,80.61
2022-08-12T03:43:45.878Z,80.42
2022-08-12T03:44:45.857Z,80.13
2022-08-12T03:45:51.940Z,79.17
2022-08-12T03:46:45.821Z,79.30
2022-08-12T03:47:45.803Z,78.53
2022-08-12T03:48:45.783Z,78.83
2022-08-12T03:49:45.765Z,78.83
2022-08-12T03:50:45.745Z,77.86
2022-08-12T03:51:45.727Z,78.02
2022-08-12T03:52:45.710Z,79.03
2022-08-12T03:53:45.688Z,80.19
2022-08-12T03:54:45.672Z,81.24
2022-08-12T03:55:45.650Z,81.97
2022-08-12T03:56:45.632Z,82.35
2022-08-12T03:57:46.049Z,82.74
2022-08-12T03:58:45.595Z,83.31
2022-08-12T03:59:45.585Z,83.22
2022-08-12T04:00:45.669Z,84.23
2022-08-12T04:01:45.538Z,83.75
2022-08-12T04:02:45.520Z,85.00
2022-08-12T04:03:45.503Z,84.81
2022-08-12T04:04:45.885Z,85.10
2022-08-12T04:05:55.556Z,85.28
2022-08-12T04:06:45.446Z,85.28
2022-08-12T04:07:57.842Z,85.00
2022-08-12T04:08:45.405Z,85.38
2022-08-12T04:09:45.390Z,85.48
2022-08-12T04:10:45.370Z,85.48
2022-08-12T04:11:45.649Z,85.38
2022-08-12T04:12:45.330Z,84.66
2022-08-12T04:13:45.315Z,84.56
2022-08-12T04:14:45.298Z,84.27
2022-08-12T04:15:45.276Z,84.18
2022-08-12T04:16:45.257Z,83.98
2022-08-12T04:18:07.249Z,83.89
2022-08-12T04:18:45.218Z,83.98
2022-08-12T04:19:45.201Z,83.98
2022-08-12T04:20:45.182Z,83.26
2022-08-12T04:22:01.978Z,83.41
2022-08-12T04:22:45.143Z,83.64
2022-08-12T04:23:48.570Z,83.36
2022-08-12T04:24:50.390Z,83.26
2022-08-12T04:25:45.083Z,83.07
2022-08-12T04:26:45.068Z,83.26
2022-08-12T04:27:45.055Z,82.97
2022-08-12T04:28:45.028Z,81.92
2022-08-12T04:30:31.318Z,82.30
2022-08-12T04:30:44.993Z,82.30
2022-08-12T04:31:44.975Z,82.40
2022-08-12T04:32:45.083Z,82.59
2022-08-12T04:33:44.937Z,82.87
2022-08-12T04:34:44.916Z,82.87
2022-08-12T04:35:44.895Z,82.59
2022-08-12T04:36:44.875Z,82.49
2022-08-12T04:37:59.265Z,82.59
2022-08-12T04:38:44.837Z,81.96
2022-08-12T04:39:44.911Z,81.24
2022-08-12T04:40:44.801Z,82.01
2022-08-12T04:41:58.158Z,81.92
2022-08-12T04:42:44.764Z,82.49
2022-08-12T04:43:59.972Z,82.64
2022-08-12T04:44:44.728Z,83.80
2022-08-12T04:45:44.704Z,84.18
2022-08-12T04:46:44.687Z,83.41
2022-08-12T04:47:44.670Z,83.41
2022-08-12T04:48:44.650Z,83.80
2022-08-12T04:49:44.638Z,84.27
2022-08-12T04:50:44.613Z,84.47
2022-08-12T04:51:44.596Z,84.47
2022-08-12T04:52:44.689Z,84.27
2022-08-12T04:53:44.552Z,85.24
2022-08-12T04:54:44.536Z,85.62
2022-08-12T04:55:44.516Z,84.85
2022-08-12T04:56:44.501Z,84.95
2022-08-12T04:57:44.479Z,84.85
2022-08-12T04:58:45.792Z,84.47
2022-08-12T04:59:48.444Z,84.47
2022-08-12T05:00:44.422Z,84.56
2022-08-12T05:01:44.401Z,84.56
2022-08-12T05:02:44.438Z,83.51
2022-08-12T05:03:46.396Z,83.70
2022-08-12T05:04:44.346Z,83.84
2022-08-12T05:05:44.328Z,84.03
2022-08-12T05:06:44.309Z,84.03
2022-08-12T05:07:53.740Z,84.22
2022-08-12T05:08:44.271Z,84.12
2022-08-12T05:10:00.885Z,83.64
2022-08-12T05:10:44.236Z,83.45
2022-08-12T05:11:53.810Z,83.74
2022-08-12T05:12:44.194Z,83.84
2022-08-12T05:13:44.183Z,83.93
2022-08-12T05:14:44.155Z,84.07
2022-08-12T05:16:03.712Z,84.07
2022-08-12T05:16:44.119Z,83.97
2022-08-12T05:17:44.096Z,84.07
2022-08-12T05:18:44.541Z,83.97
2022-08-12T05:19:44.060Z,84.26
2022-08-12T05:20:44.048Z,84.55
2022-08-12T05:21:44.022Z,83.49
2022-08-12T05:22:44.004Z,83.97
2022-08-12T05:23:43.984Z,83.69
2022-08-12T05:24:43.966Z,82.53
2022-08-12T05:25:43.945Z,82.82
2022-08-12T05:26:43.926Z,82.48
2022-08-12T05:27:56.870Z,82.86
2022-08-12T05:28:43.889Z,83.15
2022-08-12T05:30:07.164Z,80.94
2022-08-12T05:30:43.861Z,80.94
2022-08-12T05:31:48.197Z,80.75
2022-08-12T05:32:43.823Z,80.55
2022-08-12T05:33:43.797Z,78.73
2022-08-12T05:34:43.780Z,78.83
2022-08-12T05:35:43.763Z,77.96
2022-08-12T05:36:43.742Z,77.48
2022-08-12T05:37:43.720Z,77.42
2022-08-12T05:38:43.705Z,77.71
2022-08-12T05:39:43.783Z,78.38
2022-08-12T05:40:43.682Z,78.28
2022-08-12T05:41:43.646Z,76.94
2022-08-12T05:42:43.936Z,75.88
2022-08-12T05:43:43.611Z,75.44
2022-08-12T05:44:43.591Z,75.54
2022-08-12T05:45:44.957Z,75.63
2022-08-12T05:46:43.553Z,76.11
2022-08-12T05:47:53.119Z,75.44
2022-08-12T05:48:43.516Z,75.15
2022-08-12T05:49:43.498Z,75.24
2022-08-12T05:50:43.477Z,74.76
2022-08-12T05:51:43.463Z,73.80
2022-08-12T05:52:43.441Z,73.65
2022-08-12T05:53:43.424Z,73.03
2022-08-12T05:54:57.076Z,73.55
2022-08-12T05:55:43.388Z,72.30
2022-08-12T05:56:43.371Z,72.39
2022-08-12T05:57:43.351Z,72.01
2022-08-12T05:58:43.330Z,71.53
2022-08-12T05:59:43.313Z,71.24
2022-08-12T06:00:43.296Z,72.01
2022-08-12T06:02:09.349Z,71.34
2022-08-12T06:02:43.260Z,70.86
2022-08-12T06:03:43.238Z,70.56
2022-08-12T06:04:43.217Z,70.37
2022-08-12T06:05:54.558Z,70.56
2022-08-12T06:06:43.183Z,70.66
2022-08-12T06:08:02.118Z,69.64
2022-08-12T06:08:43.145Z,69.70
2022-08-12T06:09:43.135Z,69.83
2022-08-12T06:10:43.114Z,69.93
2022-08-12T06:12:04.229Z,69.93
2022-08-12T06:12:43.070Z,70.02
2022-08-12T06:13:54.595Z,68.96
2022-08-12T06:14:43.035Z,68.96
2022-08-12T06:15:43.021Z,69.15
2022-08-12T06:16:43.000Z,69.19
2022-08-12T06:17:42.985Z,68.19
2022-08-12T06:18:42.965Z,68.90
2022-08-12T06:20:26.797Z,69.09
2022-08-12T06:20:42.928Z,68.42
2022-08-12T06:21:42.913Z,69.19
2022-08-12T06:22:42.893Z,68.71
2022-08-12T06:23:43.041Z,68.42
2022-08-12T06:24:42.855Z,69.09
2022-08-12T06:25:42.834Z,68.61
2022-08-12T06:26:42.823Z,68.32
2022-08-12T06:27:42.803Z,68.90
2022-08-12T06:28:42.779Z,68.61
2022-08-12T06:30:09.913Z,68.71
2022-08-12T06:30:42.746Z,68.90
2022-08-12T06:31:42.727Z,68.80
2022-08-12T06:32:51.930Z,68.42
2022-08-12T06:33:55.089Z,68.32
2022-08-12T06:35:26.382Z,68.80
2022-08-12T06:35:48.482Z,68.61
2022-08-12T06:36:42.969Z,68.23
2022-08-12T06:37:42.619Z,67.94
2022-08-12T06:38:42.602Z,68.23
2022-08-12T06:39:42.650Z,68.07
2022-08-12T06:40:42.562Z,68.16
2022-08-12T06:42:02.611Z,67.49
2022-08-12T06:42:42.580Z,67.88
2022-08-12T06:44:04.877Z,67.40
2022-08-12T06:44:42.492Z,68.07
2022-08-12T06:45:45.351Z,67.68
2022-08-12T06:46:42.454Z,67.10
2022-08-12T06:47:42.438Z,67.88
2022-08-12T06:48:42.421Z,67.88
2022-08-12T06:49:42.403Z,67.40
2022-08-12T06:50:42.676Z,67.40
2022-08-12T06:51:42.366Z,67.00
2022-08-12T06:52:42.442Z,67.58
2022-08-12T06:53:42.333Z,66.91
2022-08-12T06:54:42.310Z,66.75
2022-08-12T06:55:57.922Z,66.85
2022-08-12T06:58:04.435Z,67.52
2022-08-12T06:58:42.240Z,67.23
2022-08-12T06:59:42.222Z,67.33
2022-08-12T07:00:42.252Z,66.94
2022-08-12T07:01:49.693Z,67.04
2022-08-12T07:02:42.567Z,66.94
2022-08-12T07:03:42.150Z,67.91
2022-08-12T07:04:42.135Z,67.62
2022-08-12T07:05:42.115Z,67.52
2022-08-12T07:06:42.100Z,67.71
2022-08-12T07:07:42.082Z,67.55
2022-08-12T07:08:42.058Z,67.17
2022-08-12T07:10:05.154Z,67.17
2022-08-12T07:10:42.025Z,67.27
2022-08-12T07:11:42.007Z,67.55
2022-08-12T07:12:42.702Z,67.94
2022-08-12T07:14:11.221Z,67.55
2022-08-12T07:14:45.707Z,67.55
2022-08-12T07:15:41.940Z,67.65
2022-08-12T07:16:41.917Z,67.49
2022-08-12T07:17:41.902Z,68.17
2022-08-12T07:18:41.882Z,67.59
2022-08-12T07:19:45.171Z,67.20
2022-08-12T07:20:52.076Z,67.01
2022-08-12T07:21:58.975Z,67.49
2022-08-12T07:22:42.179Z,67.69
2022-08-12T07:23:41.803Z,65.95
2022-08-12T07:24:41.774Z,66.14
2022-08-12T07:25:41.857Z,66.75
2022-08-12T07:26:44.357Z,66.36
2022-08-12T07:27:41.720Z,66.08
2022-08-12T07:28:41.708Z,64.92
2022-08-12T07:29:58.249Z,65.20
2022-08-12T07:30:41.670Z,65.78
2022-08-12T07:31:41.658Z,65.78
2022-08-12T07:32:41.805Z,65.78
2022-08-12T07:33:41.621Z,65.59
2022-08-12T07:34:41.601Z,65.53
2022-08-12T07:35:41.585Z,65.24
2022-08-12T07:36:41.567Z,64.95
2022-08-12T07:37:41.566Z,65.34
2022-08-12T07:38:41.537Z,65.75
2022-08-12T07:39:41.518Z,65.66
2022-08-12T07:40:41.497Z,65.17
2022-08-12T07:41:41.484Z,64.98
2022-08-12T07:42:41.599Z,64.98
2022-08-12T07:43:41.447Z,63.05
2022-08-12T07:44:41.428Z,63.34
2022-08-12T07:45:41.411Z,64.01
2022-08-12T07:46:41.392Z,64.11
2022-08-12T07:47:41.383Z,63.95
2022-08-12T07:48:41.362Z,63.18
2022-08-12T07:50:05.149Z,62.98
2022-08-12T07:50:41.327Z,62.30
2022-08-12T07:51:41.308Z,63.08
2022-08-12T07:52:41.514Z,62.88
2022-08-12T07:53:59.900Z,63.01
2022-08-12T07:54:41.259Z,62.63
2022-08-12T07:55:41.297Z,63.01
2022-08-12T07:56:41.222Z,61.85
2022-08-12T07:57:41.210Z,61.27
2022-08-12T07:58:46.556Z,60.98
2022-08-12T07:59:41.172Z,61.21
2022-08-12T08:00:41.158Z,61.21
2022-08-12T08:01:41.176Z,62.17
2022-08-12T08:02:41.374Z,61.79
2022-08-12T08:03:47.652Z,61.40
2022-08-12T08:04:41.095Z,60.24
2022-08-12T08:05:41.076Z,59.84
2022-08-12T08:06:41.063Z,59.69
2022-08-12T08:07:41.044Z,60.07
2022-08-12T08:08:41.025Z,60.07
2022-08-12T08:09:41.013Z,59.30
2022-08-12T08:10:40.996Z,59.49
2022-08-12T08:11:40.977Z,59.30
2022-08-12T08:12:41.105Z,58.72
2022-08-12T08:13:40.944Z,59.30
2022-08-12T08:14:40.927Z,59.78
2022-08-12T08:16:40.894Z,59.23
2022-08-12T08:17:40.881Z,58.94
2022-08-12T08:18:40.877Z,59.03
2022-08-12T08:20:03.057Z,57.97
2022-08-12T08:20:40.831Z,58.16
2022-08-12T08:21:40.816Z,58.16
2022-08-12T08:22:42.586Z,58.55
2022-08-12T08:23:40.784Z,58.19
2022-08-12T08:24:40.766Z,57.87
2022-08-12T08:25:40.755Z,57.51
2022-08-12T08:26:40.736Z,57.61
2022-08-12T08:27:40.718Z,57.12
2022-08-12T08:28:40.701Z,58.39
2022-08-12T08:29:40.695Z,57.54
2022-08-12T08:30:40.678Z,56.57
2022-08-12T08:31:43.710Z,57.25
2022-08-12T08:32:40.938Z,56.76
2022-08-12T08:34:08.994Z,56.37
2022-08-12T08:34:53.741Z,55.89
2022-08-12T08:35:47.322Z,55.89
2022-08-12T08:36:40.578Z,55.60
2022-08-12T08:37:40.567Z,54.63
2022-08-12T08:38:40.549Z,55.11
2022-08-12T08:39:40.596Z,54.56
2022-08-12T08:40:40.521Z,53.20
2022-08-12T08:42:17.444Z,52.81
2022-08-12T08:42:40.786Z,54.46
2022-08-12T08:43:44.652Z,54.46
2022-08-12T08:44:40.460Z,53.00
2022-08-12T08:45:40.441Z,53.13
2022-08-12T08:46:40.424Z,53.32
2022-08-12T08:47:40.412Z,52.84
2022-08-12T08:48:40.395Z,52.94
2022-08-12T08:49:40.382Z,52.74
2022-08-12T08:50:40.366Z,52.64
2022-08-12T08:51:40.351Z,52.64
2022-08-12T08:52:41.146Z,53.03
2022-08-12T08:53:40.323Z,52.25
2022-08-12T08:54:40.302Z,52.86
2022-08-12T08:56:03.692Z,52.19
2022-08-12T08:56:40.274Z,52.28
2022-08-12T08:57:43.724Z,52.67
2022-08-12T08:58:40.244Z,54.03
2022-08-12T08:59:40.232Z,53.06
2022-08-12T09:00:40.221Z,52.47
2022-08-12T09:01:40.242Z,51.70
2022-08-12T09:02:40.289Z,50.73
2022-08-12T09:05:08.205Z,51.01
2022-08-12T09:05:12.288Z,51.31
2022-08-12T09:06:01.600Z,51.70
2022-08-12T09:06:41.956Z,51.23
2022-08-12T09:07:50.985Z,52.40
2022-08-12T09:08:40.099Z,51.23
2022-08-12T09:10:45.414Z,49.00
2022-08-12T09:12:06.673Z,49.10
2022-08-12T09:12:42.322Z,48.61
2022-08-12T09:14:12.523Z,49.00
2022-08-12T09:14:40.008Z,50.26
2022-08-12T09:15:41.674Z,50.07
2022-08-12T09:16:42.908Z,50.19
2022-08-12T09:17:42.979Z,49.51
2022-08-12T09:19:39.950Z,48.54
2022-08-12T09:20:39.923Z,47.96
2022-08-12T09:21:54.601Z,48.54
2022-08-12T09:22:39.905Z,47.37
2022-08-12T09:23:59.454Z,46.20
2022-08-12T09:24:39.862Z,45.81
2022-08-12T09:25:39.851Z,47.08
2022-08-12T09:26:46.271Z,48.07
2022-08-12T09:28:24.898Z,46.78
2022-08-12T09:28:39.811Z,45.84
2022-08-12T09:30:10.151Z,44.76
2022-08-12T09:30:41.311Z,44.76
2022-08-12T09:32:06.866Z,44.57
2022-08-12T09:33:05.177Z,44.38
2022-08-12T09:34:26.004Z,43.30
2022-08-12T09:34:43.136Z,43.30
2022-08-12T09:35:43.133Z,43.40
2022-08-12T09:37:00.743Z,43.21
2022-08-12T09:37:55.225Z,43.01
2022-08-12T09:38:39.665Z,42.84
2022-08-12T09:40:05.846Z,42.65
2022-08-12T09:41:01.652Z,43.13
2022-08-12T09:42:33.734Z,42.94
2022-08-12T09:42:57.729Z,42.84
2022-08-12T09:43:53.346Z,41.48
2022-08-12T09:44:39.998Z,42.74
2022-08-12T09:46:20.094Z,42.45
2022-08-12T09:46:39.609Z,41.48
2022-08-12T09:47:39.537Z,40.80
2022-08-12T09:48:40.415Z,40.80
2022-08-12T09:49:42.601Z,40.99
2022-08-12T09:50:39.494Z,41.40
2022-08-12T09:51:44.350Z,41.01
2022-08-12T09:52:39.467Z,40.13
2022-08-12T09:53:39.773Z,39.55
2022-08-12T09:54:42.906Z,39.16
2022-08-12T09:56:05.255Z,39.55
2022-08-12T09:57:02.197Z,39.26
2022-08-12T09:58:45.672Z,39.36
2022-08-12T09:58:59.001Z,39.65
2022-08-12T10:00:17.899Z,40.13
2022-08-12T10:00:48.914Z,39.75
2022-08-12T10:02:41.927Z,39.26
2022-08-12T10:02:44.867Z,38.87
2022-08-12T10:04:03.054Z,38.57
2022-08-12T10:04:39.335Z,39.06
2022-08-12T10:06:26.563Z,39.06
2022-08-12T10:06:55.330Z,39.34
2022-08-12T10:07:40.203Z,39.26
2022-08-12T10:08:39.246Z,39.45
2022-08-12T10:09:57.871Z,39.26
2022-08-12T10:10:42.538Z,38.85
2022-08-12T10:12:10.101Z,38.36
2022-08-12T10:12:39.190Z,38.36
2022-08-12T10:13:41.452Z,38.95
2022-08-12T10:14:39.166Z,38.65
2022-08-12T10:16:01.945Z,38.46
2022-08-12T10:16:39.702Z,38.85
2022-08-12T10:18:06.609Z,38.56
2022-08-12T10:18:51.625Z,38.85
2022-08-12T10:19:39.099Z,38.48
2022-08-12T10:20:39.081Z,38.48
2022-08-12T10:21:39.067Z,39.26
2022-08-12T10:22:41.181Z,39.26
2022-08-12T10:23:39.791Z,38.38
2022-08-12T10:24:39.032Z,38.48
2022-08-12T10:26:34.605Z,39.26
2022-08-12T10:26:39.620Z,38.30
2022-08-12T10:28:04.705Z,37.60
2022-08-12T10:28:39.169Z,37.60
2022-08-12T10:30:03.155Z,37.79
2022-08-12T10:30:47.001Z,37.89
2022-08-12T10:31:47.195Z,37.81
2022-08-12T10:32:43.698Z,38.20
2022-08-12T10:33:55.051Z,37.52
2022-08-12T10:34:38.886Z,37.91
2022-08-12T10:35:38.871Z,38.01
2022-08-12T10:36:40.218Z,37.43
2022-08-12T10:38:36.188Z,38.30
2022-08-12T10:38:41.516Z,38.20
2022-08-12T10:40:08.200Z,37.81
2022-08-12T10:40:38.903Z,38.30
2022-08-12T10:41:58.411Z,37.62
2022-08-12T10:42:38.777Z,37.04
2022-08-12T10:43:55.712Z,37.81
2022-08-12T10:44:38.806Z,37.52
2022-08-12T10:45:38.823Z,37.71
2022-08-12T10:46:38.724Z,37.43
2022-08-12T10:48:19.810Z,37.33
2022-08-12T10:48:38.708Z,37.33
2022-08-12T10:50:05.827Z,38.10
2022-08-12T10:51:01.648Z,37.91
2022-08-12T10:52:03.592Z,37.71
2022-08-12T10:52:38.651Z,38.40
2022-08-12T10:53:44.856Z,37.62
2022-08-12T10:54:38.626Z,37.13
2022-08-12T10:55:38.601Z,37.52
2022-08-12T10:56:38.593Z,37.81
2022-08-12T10:58:15.147Z,38.01
2022-08-12T10:58:38.566Z,37.91
2022-08-12T11:00:29.632Z,38.10
2022-08-12T11:00:54.987Z,38.49
2022-08-12T11:04:17.878Z,38.40
2022-08-12T11:04:22.487Z,36.76
2022-08-12T11:04:31.873Z,37.63
2022-08-12T11:04:48.894Z,37.73
2022-08-12T11:07:05.007Z,38.12
2022-08-12T11:07:09.833Z,37.54
2022-08-12T11:08:36.033Z,37.73
2022-08-12T11:08:43.309Z,37.54
2022-08-12T11:09:56.049Z,36.86
2022-08-12T11:10:38.467Z,37.83
2022-08-12T11:12:35.639Z,37.63
2022-08-12T11:12:59.332Z,37.35
2022-08-12T11:13:45.925Z,37.37
2022-08-12T11:14:50.205Z,37.17
2022-08-12T11:16:18.952Z,36.98
2022-08-12T11:16:38.327Z,37.45
2022-08-12T11:17:51.886Z,38.02
2022-08-12T11:18:38.297Z,37.95
2022-08-12T11:19:38.291Z,37.83
2022-08-12T11:20:38.267Z,37.25
2022-08-12T11:21:57.047Z,37.15
2022-08-12T11:22:38.243Z,36.96
2022-08-12T11:23:38.232Z,37.93
2022-08-12T11:24:38.217Z,36.98
2022-08-12T11:25:57.488Z,36.98
2022-08-12T11:26:38.184Z,37.85
2022-08-12T11:27:38.181Z,37.17
2022-08-12T11:28:38.780Z,36.49
2022-08-12T11:30:05.444Z,36.39
2022-08-12T11:30:38.134Z,37.37
2022-08-12T11:31:56.145Z,36.88
2022-08-12T11:32:39.044Z,37.19
2022-08-12T11:34:04.361Z,36.78
2022-08-12T11:34:52.397Z,36.19
2022-08-12T11:35:38.070Z,35.51
2022-08-12T11:36:39.315Z,35.41
2022-08-12T11:37:57.947Z,35.31
2022-08-12T11:38:38.001Z,34.83
2022-08-12T11:40:37.975Z,35.31
2022-08-12T11:41:37.960Z,34.71
2022-08-12T11:42:45.929Z,34.52
2022-08-12T11:43:50.783Z,35.12
2022-08-12T11:44:43.316Z,34.63
2022-08-12T11:45:38.943Z,34.63
2022-08-12T11:46:37.906Z,35.22
2022-08-12T11:47:40.282Z,34.83
2022-08-12T11:48:51.530Z,35.12
2022-08-12T11:49:37.859Z,34.81
2022-08-12T11:50:42.293Z,34.52
2022-08-12T11:51:39.778Z,35.00
2022-08-12T11:52:56.677Z,34.71
2022-08-12T11:53:58.376Z,34.32
2022-08-12T11:54:37.800Z,34.05
2022-08-12T11:55:46.670Z,34.92
2022-08-12T11:56:38.106Z,35.41
2022-08-12T11:58:19.777Z,35.51
2022-08-12T12:00:31.849Z,35.71
2022-08-12T12:02:01.887Z,35.02
2022-08-12T12:02:02.644Z,34.53
2022-08-12T12:02:37.813Z,36.02
2022-08-12T12:03:45.674Z,36.31
2022-08-12T12:04:37.664Z,35.33
2022-08-12T12:05:41.519Z,35.33
2022-08-12T12:06:37.643Z,35.41
2022-08-12T12:08:37.092Z,34.63
2022-08-12T12:08:42.705Z,35.02
2022-08-12T12:09:52.762Z,35.22
2022-08-12T12:10:37.595Z,35.02
2022-08-12T12:11:48.621Z,35.43
2022-08-12T12:12:37.565Z,34.92
2022-08-12T12:14:08.918Z,34.44
2022-08-12T12:14:37.853Z,34.53
2022-08-12T12:15:41.121Z,36.10
2022-08-12T12:16:38.120Z,35.80
2022-08-12T12:17:38.329Z,36.10
2022-08-12T12:18:37.492Z,35.90
2022-08-12T12:19:45.316Z,36.49
2022-08-12T12:20:37.465Z,35.72
2022-08-12T12:21:48.291Z,35.24
2022-08-12T12:22:37.512Z,34.75
2022-08-12T12:23:37.426Z,35.04
2022-08-12T12:24:37.417Z,34.75
2022-08-12T12:26:07.041Z,34.53
2022-08-12T12:26:38.394Z,34.53
2022-08-12T12:28:03.664Z,34.63
2022-08-12T12:28:39.424Z,35.12
2022-08-12T12:30:17.769Z,35.61
2022-08-12T12:30:37.442Z,35.71
2022-08-12T12:32:11.173Z,35.22
2022-08-12T12:32:37.313Z,35.14
2022-08-12T12:33:56.892Z,35.14
2022-08-12T12:34:37.291Z,35.04
2022-08-12T12:36:05.755Z,35.31
2022-08-12T12:36:37.268Z,35.51
2022-08-12T12:38:03.643Z,34.92
2022-08-12T12:38:37.240Z,35.24
2022-08-12T12:39:55.367Z,35.72
2022-08-12T12:40:39.777Z,36.21
2022-08-12T12:42:41.948Z,35.33
2022-08-12T12:42:52.270Z,35.14
2022-08-12T12:43:42.965Z,34.86
2022-08-12T12:44:42.154Z,35.25
2022-08-12T12:45:37.146Z,35.25
2022-08-12T12:46:37.135Z,34.96
2022-08-12T12:47:37.170Z,35.06
2022-08-12T12:48:38.239Z,34.57
2022-08-12T12:49:37.096Z,35.06
2022-08-12T12:50:42.716Z,34.36
2022-08-12T12:52:06.807Z,34.84
2022-08-12T12:52:37.060Z,35.16
2022-08-12T12:54:06.813Z,34.67
2022-08-12T12:54:37.045Z,34.96
2022-08-12T12:55:37.025Z,34.77
2022-08-12T12:56:37.015Z,34.47
2022-08-12T12:58:00.088Z,35.16
2022-08-12T12:58:36.985Z,35.25